Time;durP1;ratioP1;P1;durP2;ratioP2;P2;SDS_P1;SDS_P2;PMS_P1;PMS_P2;Temp;Humidity;BMP_temperature;BMP_pressure;BME280_temperature;BME280_humidity;BME280_pressure;Samples;Min_cycle;Max_cycle;Signal;HPM_P1;HPM_P2
2023/03/02 00:00:29;;;;;;;;;;;;;;;1.86;62.83;102168.50;4193774;28;20020;-65
2023/03/02 00:02:31;;;;;;;;;;;;;;;1.82;62.80;102175.81;4195159;28;20020;-65
2023/03/02 00:04:34;;;;;;;;;;;;;;;1.81;63.04;102176.75;4193920;28;20015;-64
2023/03/02 00:06:38;;;;;;;;;;;;;;;1.80;63.16;102170.56;4186111;28;20529;-65
2023/03/02 00:08:40;;;;;;;;;;;;;;;1.82;63.17;102167.81;4195178;28;20059;-65
2023/03/02 00:10:42;;;;;;;;;;;;;;;1.83;63.15;102171.34;4192142;28;20047;-65
2023/03/02 00:12:44;;;;;;;;;;;;;;;1.80;63.16;102175.91;4195352;28;20363;-65
2023/03/02 00:14:46;;;;;;;;;;;;;;;1.79;63.17;102178.66;4194150;28;20023;-65
2023/03/02 00:16:48;;;;;;;;;;;;;;;1.82;63.02;102182.94;4191981;28;20015;-65
2023/03/02 00:18:50;;;;;;;;;;;;;;;1.77;63.14;102180.53;4185241;28;20399;-65
2023/03/02 00:20:51;;;;;;;;;;;;;;;1.72;63.23;102169.25;4202092;28;20007;-64
2023/03/02 00:22:55;;;;;;;;;;;;;;;1.66;63.74;102181.09;4194929;28;20482;-65
2023/03/02 00:24:57;;;;;;;;;;;;;;;1.68;64.16;102183.69;4193408;28;20453;-65
2023/03/02 00:26:59;;;;;;;;;;;;;;;1.67;64.33;102181.97;4194106;28;20007;-64
2023/03/02 00:29:01;;;;;;;;;;;;;;;1.70;64.19;102174.69;4195064;28;20032;-65
2023/03/02 00:31:04;;;;;;;;;;;;;;;1.71;64.04;102175.53;4201696;28;20035;-65
2023/03/02 00:33:05;;;;;;;;;;;;;;;1.68;63.80;102170.38;4193542;28;20025;-65
2023/03/02 00:35:08;;;;;;;;;;;;;;;1.65;63.74;102171.41;4184955;28;20028;-64
2023/03/02 00:37:10;;;;;;;;;;;;;;;1.62;63.93;102169.75;4186162;28;20335;-65
2023/03/02 00:39:13;;;;;;;;;;;;;;;1.60;63.90;102170.81;4168668;28;19956;-65
2023/03/02 00:41:16;;;;;;;;;;;;;;;1.55;64.06;102173.72;4193619;28;20502;-64
2023/03/02 00:43:18;;;;;;;;;;;;;;;1.50;64.12;102172.25;4193796;28;20023;-65
2023/03/02 00:45:20;;;;;;;;;;;;;;;1.43;64.20;102164.59;4204390;28;20012;-64
2023/03/02 00:47:21;;;;;;;;;;;;;;;1.39;64.24;102164.84;4205220;28;20018;-64
2023/03/02 00:49:23;;;;;;;;;;;;;;;1.30;64.37;102165.31;4197076;28;20380;-64
2023/03/02 00:51:25;;;;;;;;;;;;;;;1.24;64.55;102169.19;4195638;28;20023;-64
2023/03/02 00:53:27;;;;;;;;;;;;;;;1.22;64.71;102168.38;4188251;28;20440;-64
2023/03/02 00:55:31;;;;;;;;;;;;;;;1.23;64.88;102170.97;4195853;28;20015;-64
2023/03/02 00:57:33;;;;;;;;;;;;;;;1.26;64.60;102159.31;4198372;28;20360;-65
2023/03/02 00:59:36;;;;;;;;;;;;;;;1.28;64.60;102165.41;4203960;28;20052;-64
2023/03/02 01:01:57;;;;;;;;;;;;;;;1.32;64.54;102161.66;4188322;28;20023;-64
2023/03/02 01:04:00;;;;;;;;;;;;;;;1.30;64.53;102166.19;4188818;28;20391;-65
2023/03/02 01:06:02;;;;;;;;;;;;;;;1.30;64.84;102163.53;4191763;28;20019;-64
2023/03/02 01:08:05;;;;;;;;;;;;;;;1.33;64.72;102154.50;4196408;28;20028;-64
2023/03/02 01:10:07;;;;;;;;;;;;;;;1.35;64.69;102153.50;4195946;28;20014;-65
2023/03/02 01:12:11;;;;;;;;;;;;;;;1.36;64.68;102154.34;4203457;28;20035;-65
2023/03/02 01:14:14;;;;;;;;;;;;;;;1.32;64.69;102147.50;4204723;28;20022;-65
2023/03/02 01:16:16;;;;;;;;;;;;;;;1.26;64.62;102153.97;4210816;28;20129;-65
2023/03/02 01:18:18;;;;;;;;;;;;;;;1.20;65.03;102152.50;4204879;28;20372;-65
2023/03/02 01:20:20;;;;;;;;;;;;;;;1.20;65.03;102149.84;4196049;28;20276;-66
2023/03/02 01:22:22;;;;;;;;;;;;;;;1.21;65.14;102156.88;4195568;28;20440;-66
2023/03/02 01:24:24;;;;;;;;;;;;;;;1.22;65.27;102150.63;4194536;28;20011;-66
2023/03/02 01:26:26;;;;;;;;;;;;;;;1.20;65.13;102155.16;4205294;28;20011;-66
2023/03/02 01:28:29;;;;;;;;;;;;;;;1.14;65.25;102157.28;4196467;28;20032;-65
2023/03/02 01:30:31;;;;;;;;;;;;;;;1.12;65.62;102154.72;4202463;28;20481;-66
2023/03/02 01:32:33;;;;;;;;;;;;;;;1.10;65.56;102148.63;4212057;28;20018;-66
2023/03/02 01:34:35;;;;;;;;;;;;;;;1.05;65.68;102148.88;4196125;28;20030;-64
2023/03/02 01:36:37;;;;;;;;;;;;;;;1.04;65.95;102149.78;4188211;28;20458;-65
2023/03/02 01:38:39;;;;;;;;;;;;;;;1.05;65.76;102155.97;4196900;28;20025;-64
2023/03/02 01:40:41;;;;;;;;;;;;;;;1.03;65.67;102145.41;4203600;28;20660;-65
2023/03/02 01:42:47;;;;;;;;;;;;;;;1.04;65.55;102154.25;4197364;28;20011;-65
2023/03/02 01:44:51;;;;;;;;;;;;;;;1.02;65.89;102149.03;4194056;28;20015;-65
2023/03/02 01:46:53;;;;;;;;;;;;;;;1.05;66.11;102143.53;4195794;28;20018;-65
2023/03/02 01:48:57;;;;;;;;;;;;;;;1.07;65.98;102144.31;4202841;28;20035;-65
2023/03/02 01:51:06;;;;;;;;;;;;;;;1.10;65.90;102143.31;4210280;28;20031;-66
2023/03/02 01:53:09;;;;;;;;;;;;;;;1.08;65.64;102131.84;4195635;28;20071;-64
2023/03/02 01:55:12;;;;;;;;;;;;;;;1.05;65.76;102129.34;4187377;28;20027;-65
2023/03/02 01:57:15;;;;;;;;;;;;;;;0.97;65.71;102121.81;4203704;28;19932;-65
2023/03/02 01:59:18;;;;;;;;;;;;;;;0.94;65.93;102132.59;4210743;28;20030;-65
2023/03/02 02:01:21;;;;;;;;;;;;;;;0.93;66.05;102122.91;4196029;28;20430;-65
2023/03/02 02:03:25;;;;;;;;;;;;;;;0.94;66.39;102127.28;4203355;28;20019;-65
2023/03/02 02:05:27;;;;;;;;;;;;;;;0.97;66.37;102126.25;4203785;28;20003;-65
2023/03/02 02:07:29;;;;;;;;;;;;;;;1.01;66.30;102122.50;4212668;28;19948;-65
2023/03/02 02:09:33;;;;;;;;;;;;;;;1.04;66.10;102114.34;4196325;28;20015;-65
2023/03/02 02:11:36;;;;;;;;;;;;;;;1.03;66.04;102118.78;4202458;28;20365;-64
2023/03/02 02:13:38;;;;;;;;;;;;;;;1.04;66.05;102117.88;4193764;28;20015;-65
2023/03/02 02:15:40;;;;;;;;;;;;;;;1.03;65.74;102116.13;4185489;28;20036;-65
2023/03/02 02:17:43;;;;;;;;;;;;;;;1.01;65.78;102106.53;4204423;28;19987;-65
2023/03/02 02:19:53;;;;;;;;;;;;;;;1.00;65.64;102110.13;4194762;28;20020;-65
2023/03/02 02:21:55;;;;;;;;;;;;;;;0.96;65.74;102101.44;4203514;28;20031;-66
2023/03/02 02:24:02;;;;;;;;;;;;;;;0.90;66.06;102102.63;4194129;28;20019;-65
2023/03/02 02:26:06;;;;;;;;;;;;;;;0.90;66.03;102105.28;4195834;28;20012;-65
2023/03/02 02:28:10;;;;;;;;;;;;;;;0.90;66.32;102112.41;4195191;28;20393;-64
2023/03/02 02:30:12;;;;;;;;;;;;;;;0.90;66.41;102102.63;4194737;28;20020;-65
2023/03/02 02:32:15;;;;;;;;;;;;;;;0.92;66.24;102112.34;4186871;28;20012;-65
2023/03/02 02:34:21;;;;;;;;;;;;;;;0.89;66.22;102108.03;4203823;28;20671;-65
2023/03/02 02:36:29;;;;;;;;;;;;;;;0.86;66.31;102108.19;4193538;28;20031;-65
2023/03/02 02:38:32;;;;;;;;;;;;;;;0.81;66.15;102105.75;4196244;28;20024;-65
2023/03/02 02:40:41;;;;;;;;;;;;;;;0.78;66.62;102111.25;4194888;28;20473;-65
2023/03/02 02:42:47;;;;;;;;;;;;;;;0.80;67.01;102112.03;4187040;28;20027;-65
2023/03/02 02:44:49;;;;;;;;;;;;;;;0.85;66.89;102115.31;4202275;28;20626;-64
2023/03/02 02:46:51;;;;;;;;;;;;;;;0.88;66.71;102112.50;4196514;28;20019;-65
2023/03/02 02:48:53;;;;;;;;;;;;;;;0.89;66.60;102116.88;4202619;28;20015;-65
2023/03/02 02:50:59;;;;;;;;;;;;;;;0.88;66.45;102112.50;4192393;28;20026;-64
2023/03/02 02:53:01;;;;;;;;;;;;;;;0.85;66.56;102111.81;4203147;28;20160;-64
2023/03/02 02:55:03;;;;;;;;;;;;;;;0.80;66.65;102108.50;4193928;28;20036;-64
2023/03/02 02:57:05;;;;;;;;;;;;;;;0.77;66.95;102106.00;4202061;28;20036;-64
2023/03/02 02:59:17;;;;;;;;;;;;;;;0.77;67.13;102108.66;4209075;28;20511;-65
2023/03/02 03:01:24;;;;;;;;;;;;;;;0.77;67.14;102096.25;4192522;28;20757;-66
2023/03/02 03:03:30;;;;;;;;;;;;;;;0.76;67.23;102097.16;4192779;28;20015;-65
2023/03/02 03:05:35;;;;;;;;;;;;;;;0.79;67.13;102104.16;4191926;28;20007;-65
2023/03/02 03:07:38;;;;;;;;;;;;;;;0.79;67.30;102101.47;4194596;28;20019;-63
2023/03/02 03:09:41;;;;;;;;;;;;;;;0.78;67.36;102099.75;4202240;28;20015;-65
2023/03/02 03:11:43;;;;;;;;;;;;;;;0.80;67.44;102103.19;4210908;28;19927;-65
2023/03/02 03:13:46;;;;;;;;;;;;;;;0.77;67.41;102098.91;4209767;28;20019;-66
2023/03/02 03:15:50;;;;;;;;;;;;;;;0.73;67.49;102101.81;4168591;28;20008;-66
2023/03/02 03:17:55;;;;;;;;;;;;;;;0.75;67.94;102099.91;4186247;28;20027;-65
2023/03/02 03:20:04;;;;;;;;;;;;;;;0.74;67.84;102093.75;4201517;28;20011;-66
2023/03/02 03:22:10;;;;;;;;;;;;;;;0.74;67.91;102103.50;4193936;28;20019;-64
2023/03/02 03:24:12;;;;;;;;;;;;;;;0.73;68.11;102101.81;4169845;28;20020;-64
2023/03/02 03:26:14;;;;;;;;;;;;;;;0.68;67.93;102102.03;4194401;28;20020;-64
2023/03/02 03:28:17;;;;;;;;;;;;;;;0.63;67.94;102104.94;4194957;28;19963;-63
2023/03/02 03:30:21;;;;;;;;;;;;;;;0.60;68.22;102093.59;4201136;28;20018;-64
2023/03/02 03:32:25;;;;;;;;;;;;;;;0.60;68.38;102093.59;4209881;28;20035;-64
2023/03/02 03:34:30;;;;;;;;;;;;;;;0.58;68.47;102095.47;4192794;28;20020;-64
2023/03/02 03:36:32;;;;;;;;;;;;;;;0.62;68.77;102097.03;4194178;28;20628;-64
2023/03/02 03:38:34;;;;;;;;;;;;;;;0.64;68.57;102096.03;4186150;28;20071;-64
2023/03/02 03:40:36;;;;;;;;;;;;;;;0.64;68.76;102098.69;4194164;28;20015;-63
2023/03/02 03:42:39;;;;;;;;;;;;;;;0.63;68.69;102088.97;4194079;28;20011;-63
2023/03/02 03:44:41;;;;;;;;;;;;;;;0.60;68.74;102094.44;4200747;28;20015;-64
2023/03/02 03:46:43;;;;;;;;;;;;;;;0.58;68.92;102093.69;4209949;28;20023;-64
2023/03/02 03:48:47;;;;;;;;;;;;;;;0.55;68.92;102091.19;4194454;28;20027;-64
2023/03/02 03:50:49;;;;;;;;;;;;;;;0.57;69.27;102091.09;4194717;28;20027;-64
2023/03/02 03:52:51;;;;;;;;;;;;;;;0.60;69.16;102091.78;4193595;28;20023;-64
2023/03/02 03:54:59;;;;;;;;;;;;;;;0.61;68.84;102082.00;4201225;28;20034;-64
2023/03/02 03:57:03;;;;;;;;;;;;;;;0.61;68.59;102095.31;4194611;28;20019;-64
2023/03/02 03:59:06;;;;;;;;;;;;;;;0.58;68.75;102090.16;4185397;28;20044;-63
2023/03/02 04:01:12;;;;;;;;;;;;;;;0.59;69.01;102091.88;4208789;28;20431;-64
2023/03/02 04:03:14;;;;;;;;;;;;;;;0.59;68.89;102099.84;4192550;28;20028;-64
2023/03/02 04:05:20;;;;;;;;;;;;;;;0.55;69.02;102091.19;4208954;28;20647;-64
2023/03/02 04:07:26;;;;;;;;;;;;;;;0.58;69.08;102088.38;4201248;28;19932;-64
2023/03/02 04:09:28;;;;;;;;;;;;;;;0.56;69.03;102095.53;4193907;28;20016;-64
2023/03/02 04:11:31;;;;;;;;;;;;;;;0.51;69.01;102098.44;4201225;28;20023;-64
2023/03/02 04:13:33;;;;;;;;;;;;;;;0.51;69.24;102094.91;4193907;28;20015;-64
2023/03/02 04:15:35;;;;;;;;;;;;;;;0.47;69.14;102085.38;4191920;28;20011;-64
2023/03/02 04:17:37;;;;;;;;;;;;;;;0.40;69.25;102086.66;4194058;28;20031;-64
2023/03/02 04:19:39;;;;;;;;;;;;;;;0.33;69.20;102083.44;4195468;28;20023;-64
2023/03/02 04:21:44;;;;;;;;;;;;;;;0.25;69.03;102081.16;4195444;28;20027;-64
2023/03/02 04:23:47;;;;;;;;;;;;;;;0.17;68.92;102078.91;4205242;28;20023;-64
2023/03/02 04:25:49;;;;;;;;;;;;;;;0.11;68.95;102081.84;4212074;28;20341;-64
2023/03/02 04:27:55;;;;;;;;;;;;;;;0.12;69.22;102082.72;4194885;28;20012;-64
2023/03/02 04:29:58;;;;;;;;;;;;;;;0.08;69.33;102082.00;4195265;28;20019;-64
2023/03/02 04:32:01;;;;;;;;;;;;;;;0.05;69.43;102089.25;4187116;28;20043;-64
2023/03/02 04:34:04;;;;;;;;;;;;;;;0.03;69.53;102084.00;4196027;28;20035;-64
2023/03/02 04:36:08;;;;;;;;;;;;;;;0.06;69.56;102086.50;4192515;28;20024;-64
2023/03/02 04:38:12;;;;;;;;;;;;;;;0.04;69.60;102091.06;4188620;28;20023;-64
2023/03/02 04:40:14;;;;;;;;;;;;;;;-0.01;69.47;102090.44;4203256;28;20386;-64
2023/03/02 04:42:16;;;;;;;;;;;;;;;-0.01;69.54;102093.94;4197252;28;20027;-64
2023/03/02 04:44:19;;;;;;;;;;;;;;;-0.01;70.02;102093.94;4196284;28;20019;-64
2023/03/02 04:46:22;;;;;;;;;;;;;;;0.06;69.97;102097.13;4195031;28;20039;-64
2023/03/02 04:48:24;;;;;;;;;;;;;;;0.09;69.91;102097.00;4195750;28;20019;-63
2023/03/02 04:50:27;;;;;;;;;;;;;;;0.10;69.86;102101.38;4195232;28;20035;-64
2023/03/02 04:52:30;;;;;;;;;;;;;;;0.13;69.95;102101.22;4196348;28;20014;-64
2023/03/02 04:54:33;;;;;;;;;;;;;;;0.13;70.05;102108.34;4194592;28;20023;-64
2023/03/02 04:56:35;;;;;;;;;;;;;;;0.17;69.94;102107.25;4197566;28;20023;-64
2023/03/02 04:58:37;;;;;;;;;;;;;;;0.21;69.98;102103.50;4197348;28;20019;-64
2023/03/02 05:00:39;;;;;;;;;;;;;;;0.18;69.69;102099.19;4193542;28;20019;-64
2023/03/02 05:02:41;;;;;;;;;;;;;;;0.16;69.75;102100.22;4193035;28;20024;-64
2023/03/02 05:04:43;;;;;;;;;;;;;;;0.12;69.82;102101.31;4195248;28;20020;-64
2023/03/02 05:06:47;;;;;;;;;;;;;;;0.09;70.03;102094.34;4196825;28;20015;-64
2023/03/02 05:08:48;;;;;;;;;;;;;;;0.06;70.36;102098.94;4196837;28;20031;-64
2023/03/02 05:10:52;;;;;;;;;;;;;;;-0.03;70.34;102094.97;4195092;28;20023;-64
2023/03/02 05:12:56;;;;;;;;;;;;;;;-0.07;70.51;102083.59;4196541;28;20019;-63
2023/03/02 05:14:58;;;;;;;;;;;;;;;-0.02;70.91;102089.56;4195109;28;20016;-63
2023/03/02 05:17:00;;;;;;;;;;;;;;;0.05;70.88;102084.81;4191829;28;20462;-63
2023/03/02 05:19:03;;;;;;;;;;;;;;;0.02;70.61;102081.44;4195648;28;20032;-62
2023/03/02 05:21:05;;;;;;;;;;;;;;;0.02;71.18;102076.13;4187277;28;20055;-64
2023/03/02 05:23:15;;;;;;;;;;;;;;;0.06;71.16;102086.50;4195078;28;20474;-64
2023/03/02 05:25:17;;;;;;;;;;;;;;;0.09;71.04;102091.69;4192633;28;19999;-64
2023/03/02 05:27:22;;;;;;;;;;;;;;;0.13;70.80;102092.41;4196152;28;20027;-64
2023/03/02 05:29:24;;;;;;;;;;;;;;;0.16;70.83;102089.59;4195198;28;20019;-63
2023/03/02 05:31:28;;;;;;;;;;;;;;;0.18;70.92;102093.03;4193401;28;20108;-63
2023/03/02 05:33:30;;;;;;;;;;;;;;;0.17;70.68;102088.63;4195423;28;20011;-64
2023/03/02 05:35:32;;;;;;;;;;;;;;;0.10;70.50;102093.41;4195698;28;20027;-64
2023/03/02 05:37:34;;;;;;;;;;;;;;;0.03;70.63;102094.63;4195902;28;20026;-64
2023/03/02 05:39:36;;;;;;;;;;;;;;;-0.03;71.00;102095.81;4195948;28;20019;-63
2023/03/02 05:41:38;;;;;;;;;;;;;;;-0.04;71.13;102093.22;4194645;28;20059;-64
2023/03/02 05:43:42;;;;;;;;;;;;;;;-0.08;71.18;102095.19;4196586;28;20019;-64
2023/03/02 05:45:44;;;;;;;;;;;;;;;-0.08;71.50;102095.19;4202510;28;20015;-64
2023/03/02 05:47:46;;;;;;;;;;;;;;;-0.04;71.80;102096.75;4191382;28;20362;-64
2023/03/02 05:49:48;;;;;;;;;;;;;;;-0.02;71.67;102094.88;4191483;28;20011;-64
2023/03/02 05:51:51;;;;;;;;;;;;;;;-0.04;71.49;102096.75;4193124;28;20434;-63
2023/03/02 05:53:53;;;;;;;;;;;;;;;-0.03;71.73;102095.81;4195187;28;20015;-64
2023/03/02 05:55:55;;;;;;;;;;;;;;;-0.02;71.92;102097.53;4193219;28;20028;-63
2023/03/02 05:57:57;;;;;;;;;;;;;;;0.05;71.86;102099.88;4193496;28;20023;-64
2023/03/02 06:00:01;;;;;;;;;;;;;;;0.06;71.62;102090.97;4192833;28;20366;-64
2023/03/02 06:02:03;;;;;;;;;;;;;;;0.04;71.72;102087.53;4193684;28;20015;-64
2023/03/02 06:04:05;;;;;;;;;;;;;;;0.00;72.08;102094.81;4194157;28;20015;-64
2023/03/02 06:06:07;;;;;;;;;;;;;;;0.02;72.05;102086.75;4193734;28;20047;-63
2023/03/02 06:08:09;;;;;;;;;;;;;;;0.06;72.22;102097.13;4195532;28;20015;-64
2023/03/02 06:10:11;;;;;;;;;;;;;;;0.12;72.17;102093.34;4195435;28;20453;-65
2023/03/02 06:12:13;;;;;;;;;;;;;;;0.14;72.10;102096.75;4194828;28;20019;-64
2023/03/02 06:14:15;;;;;;;;;;;;;;;0.15;72.01;102102.00;4193360;28;20019;-64
2023/03/02 06:16:20;;;;;;;;;;;;;;;0.17;72.03;102104.59;4194460;28;20024;-64
2023/03/02 06:18:22;;;;;;;;;;;;;;;0.20;72.03;102101.78;4193779;28;20016;-64
2023/03/02 06:20:24;;;;;;;;;;;;;;;0.21;72.04;102113.28;4193270;28;20035;-64
2023/03/02 06:22:26;;;;;;;;;;;;;;;0.21;72.40;102108.81;4194629;28;20026;-64
2023/03/02 06:24:28;;;;;;;;;;;;;;;0.23;72.49;102098.97;4193673;28;20011;-63
2023/03/02 06:26:30;;;;;;;;;;;;;;;0.27;72.51;102105.00;4194196;28;20532;-64
2023/03/02 06:28:32;;;;;;;;;;;;;;;0.27;72.35;102108.53;4193329;28;20091;-64
2023/03/02 06:30:34;;;;;;;;;;;;;;;0.28;72.65;102104.06;4192615;28;20027;-64
2023/03/02 06:32:37;;;;;;;;;;;;;;;0.29;72.77;102109.28;4194459;28;20027;-64
2023/03/02 06:34:40;;;;;;;;;;;;;;;0.29;73.01;102108.44;4193942;28;20020;-64
2023/03/02 06:36:42;;;;;;;;;;;;;;;0.32;73.29;102114.44;4202556;28;20018;-64
2023/03/02 06:38:44;;;;;;;;;;;;;;;0.37;73.36;102108.91;4194741;28;20397;-64
2023/03/02 06:40:46;;;;;;;;;;;;;;;0.42;73.39;102114.00;4194552;28;20020;-64
2023/03/02 06:42:48;;;;;;;;;;;;;;;0.44;73.46;102109.44;4194292;28;20050;-64
2023/03/02 06:44:50;;;;;;;;;;;;;;;0.43;73.51;102118.38;4193840;28;20009;-64
2023/03/02 06:46:52;;;;;;;;;;;;;;;0.40;73.29;102115.88;4195159;28;20015;-64
2023/03/02 06:48:55;;;;;;;;;;;;;;;0.36;73.53;102112.50;4194427;28;20031;-63
2023/03/02 06:50:57;;;;;;;;;;;;;;;0.34;73.67;102117.88;4194365;28;20023;-64
2023/03/02 06:52:59;;;;;;;;;;;;;;;0.35;74.10;102124.09;4192253;28;20027;-64
2023/03/02 06:55:01;;;;;;;;;;;;;;;0.39;74.27;102128.28;4193356;28;20036;-64
2023/03/02 06:57:06;;;;;;;;;;;;;;;0.44;74.38;102125.41;4194080;28;20011;-64
2023/03/02 06:59:08;;;;;;;;;;;;;;;0.50;74.57;102122.44;4191932;28;20016;-64
2023/03/02 07:01:10;;;;;;;;;;;;;;;0.59;74.66;102123.78;4193468;28;20418;-64
2023/03/02 07:03:11;;;;;;;;;;;;;;;0.65;74.52;102126.13;4193643;28;20019;-63
2023/03/02 07:05:15;;;;;;;;;;;;;;;0.71;74.57;102124.00;4193394;28;20357;-63
2023/03/02 07:07:17;;;;;;;;;;;;;;;0.78;74.57;102119.22;4192503;28;20027;-64
2023/03/02 07:09:19;;;;;;;;;;;;;;;0.86;74.80;102118.81;4190936;28;20015;-64
2023/03/02 07:11:21;;;;;;;;;;;;;;;0.92;74.56;102123.81;4191675;28;20016;-64
2023/03/02 07:13:23;;;;;;;;;;;;;;;0.97;74.64;102115.59;4192966;28;20420;-64
2023/03/02 07:15:25;;;;;;;;;;;;;;;1.02;74.66;102113.56;4191449;28;20031;-64
2023/03/02 07:17:27;;;;;;;;;;;;;;;1.06;74.88;102113.31;4194274;28;20012;-64
2023/03/02 07:19:29;;;;;;;;;;;;;;;1.13;74.79;102118.31;4186083;28;20031;-64
2023/03/02 07:21:32;;;;;;;;;;;;;;;1.20;74.98;102119.72;4194886;28;20063;-63
2023/03/02 07:23:34;;;;;;;;;;;;;;;1.23;74.93;102117.75;4194888;28;20023;-64
2023/03/02 07:25:36;;;;;;;;;;;;;;;1.29;74.88;102121.03;4194122;28;20076;-64
2023/03/02 07:27:38;;;;;;;;;;;;;;;1.34;75.06;102118.97;4194583;28;20040;-63
2023/03/02 07:29:40;;;;;;;;;;;;;;;1.39;74.91;102119.56;4194399;28;20063;-64
2023/03/02 07:31:44;;;;;;;;;;;;;;;1.44;74.91;102126.38;4194221;28;20019;-63
2023/03/02 07:33:46;;;;;;;;;;;;;;;1.48;74.88;102121.72;4194387;28;20019;-64
2023/03/02 07:35:48;;;;;;;;;;;;;;;1.54;74.65;102121.41;4194909;28;20031;-64
2023/03/02 07:37:52;;;;;;;;;;;;;;;1.59;74.60;102121.16;4194042;28;20380;-64
2023/03/02 07:39:54;;;;;;;;;;;;;;;1.64;74.42;102120.91;4193079;28;20019;-64
2023/03/02 07:41:57;;;;;;;;;;;;;;;1.65;74.27;102118.16;4193405;28;20019;-64
2023/03/02 07:43:59;;;;;;;;;;;;;;;1.70;74.08;102125.88;4194275;28;20015;-64
2023/03/02 07:46:02;;;;;;;;;;;;;;;1.72;73.90;102127.50;4194083;28;20015;-64
2023/03/02 07:48:05;;;;;;;;;;;;;;;1.75;73.67;102121.16;4193581;28;20458;-63
2023/03/02 07:50:08;;;;;;;;;;;;;;;1.75;73.62;102124.66;4194026;28;20396;-64
2023/03/02 07:52:09;;;;;;;;;;;;;;;1.78;73.54;102121.81;4194902;28;20019;-63
2023/03/02 07:54:13;;;;;;;;;;;;;;;1.80;73.45;102125.28;4193960;28;20003;-64
2023/03/02 07:56:15;;;;;;;;;;;;;;;1.83;73.35;102126.91;4194165;28;20011;-63
2023/03/02 07:58:18;;;;;;;;;;;;;;;1.82;73.35;102119.88;4194489;28;20023;-63
2023/03/02 08:00:21;;;;;;;;;;;;;;;1.82;73.17;102124.31;4194344;28;20505;-64
2023/03/02 08:02:24;;;;;;;;;;;;;;;1.80;73.07;102127.06;4193276;28;20023;-63
2023/03/02 08:04:26;;;;;;;;;;;;;;;1.78;73.00;102124.50;4193989;28;20055;-63
2023/03/02 08:06:28;;;;;;;;;;;;;;;1.76;73.06;102131.72;4195160;28;20071;-64
2023/03/02 08:08:30;;;;;;;;;;;;;;;1.73;73.30;102128.38;4194928;28;20034;-64
2023/03/02 08:10:34;;;;;;;;;;;;;;;1.71;73.54;102127.59;4192460;28;20023;-64
2023/03/02 08:12:36;;;;;;;;;;;;;;;1.66;73.50;102127.00;4194780;28;20011;-64
2023/03/02 08:14:38;;;;;;;;;;;;;;;1.64;73.63;102124.41;4193429;28;20032;-63
2023/03/02 08:16:40;;;;;;;;;;;;;;;1.62;73.81;102124.50;4195058;28;20031;-64
2023/03/02 08:18:42;;;;;;;;;;;;;;;1.61;73.61;102121.91;4193761;28;20020;-64
2023/03/02 08:20:44;;;;;;;;;;;;;;;1.62;73.78;102115.66;4184363;28;19964;-64
2023/03/02 08:22:46;;;;;;;;;;;;;;;1.61;74.03;102111.25;4194695;28;20019;-64
2023/03/02 08:24:48;;;;;;;;;;;;;;;1.60;73.98;102113.06;4194169;28;20028;-64
2023/03/02 08:26:52;;;;;;;;;;;;;;;1.62;74.15;102108.50;4193054;28;20039;-64
2023/03/02 08:28:56;;;;;;;;;;;;;;;1.66;74.24;102108.34;4193367;28;20011;-64
2023/03/02 08:30:58;;;;;;;;;;;;;;;1.70;74.32;102109.91;4193807;28;20015;-64
2023/03/02 08:33:00;;;;;;;;;;;;;;;1.68;74.15;102123.31;4194452;28;20557;-64
2023/03/02 08:35:02;;;;;;;;;;;;;;;1.64;74.35;102116.41;4193310;28;20018;-64
2023/03/02 08:37:04;;;;;;;;;;;;;;;1.64;74.78;102113.75;4193532;28;20023;-64
2023/03/02 08:39:06;;;;;;;;;;;;;;;1.68;74.90;102114.44;4193498;28;20019;-64
2023/03/02 08:41:10;;;;;;;;;;;;;;;1.72;74.86;102116.84;4193977;28;20027;-63
2023/03/02 08:43:13;;;;;;;;;;;;;;;1.76;74.77;102117.56;4193353;28;20129;-64
2023/03/02 08:45:15;;;;;;;;;;;;;;;1.78;74.46;102118.31;4193818;28;20016;-63
2023/03/02 08:47:17;;;;;;;;;;;;;;;1.80;74.40;102119.97;4192994;28;20024;-64
2023/03/02 08:49:19;;;;;;;;;;;;;;;1.82;74.29;102124.31;4192994;28;20467;-64
2023/03/02 08:51:22;;;;;;;;;;;;;;;1.79;74.24;102112.06;4193390;28;20023;-64
2023/03/02 08:53:24;;;;;;;;;;;;;;;1.79;74.36;102114.72;4191576;28;20462;-64
2023/03/02 08:55:26;;;;;;;;;;;;;;;1.76;74.46;102110.41;4193936;28;20023;-64
2023/03/02 08:57:28;;;;;;;;;;;;;;;1.74;74.42;102104.31;4193718;28;20019;-64
2023/03/02 08:59:31;;;;;;;;;;;;;;;1.76;74.67;102105.09;4192673;28;20031;-64
2023/03/02 09:01:34;;;;;;;;;;;;;;;1.79;74.96;102104.06;4193585;28;20015;-64
2023/03/02 09:03:36;;;;;;;;;;;;;;;1.78;74.73;102100.53;4193627;28;20019;-63
2023/03/02 09:05:38;;;;;;;;;;;;;;;1.81;74.63;102102.16;4195707;28;20028;-64
2023/03/02 09:07:40;;;;;;;;;;;;;;;1.80;74.67;102101.31;4197323;28;20225;-64
2023/03/02 09:09:42;;;;;;;;;;;;;;;1.84;74.65;102099.31;4196771;28;20038;-63
2023/03/02 09:11:45;;;;;;;;;;;;;;;1.86;74.48;102100.09;4197212;28;20020;-64
2023/03/02 09:13:47;;;;;;;;;;;;;;;1.82;74.29;102101.22;4196156;28;20031;-64
2023/03/02 09:15:50;;;;;;;;;;;;;;;1.79;74.43;102096.91;4196781;28;20003;-64
2023/03/02 09:17:52;;;;;;;;;;;;;;;1.83;74.77;102088.75;4197105;28;20031;-64
2023/03/02 09:19:54;;;;;;;;;;;;;;;1.88;74.74;102094.66;4195876;28;20010;-64
2023/03/02 09:21:56;;;;;;;;;;;;;;;1.91;74.38;102097.16;4195634;28;20506;-64
2023/03/02 09:23:58;;;;;;;;;;;;;;;1.88;74.21;102100.00;4196675;28;20011;-64
2023/03/02 09:26:00;;;;;;;;;;;;;;;1.88;74.15;102102.66;4196223;28;20268;-64
2023/03/02 09:28:02;;;;;;;;;;;;;;;1.91;74.27;102094.50;4204434;28;20026;-63
2023/03/02 09:30:06;;;;;;;;;;;;;;;1.92;73.74;102097.06;4194466;28;20019;-64
2023/03/02 09:32:10;;;;;;;;;;;;;;;1.92;74.09;102091.75;4196334;28;20024;-64
2023/03/02 09:34:12;;;;;;;;;;;;;;;1.96;74.17;102095.97;4196030;28;20027;-64
2023/03/02 09:36:17;;;;;;;;;;;;;;;2.01;74.06;102094.81;4194043;28;20480;-64
2023/03/02 09:38:19;;;;;;;;;;;;;;;2.02;74.06;102093.88;4196092;28;20441;-64
2023/03/02 09:40:22;;;;;;;;;;;;;;;2.04;74.10;102090.19;4196112;28;20011;-64
2023/03/02 09:42:30;;;;;;;;;;;;;;;2.07;74.32;102091.81;4196765;28;20016;-64
2023/03/02 09:44:51;;;;;;;;;;;;;;;2.11;74.36;102090.69;4195466;28;20024;-64
2023/03/02 09:46:54;;;;;;;;;;;;;;;2.16;74.02;102086.81;4196437;28;20007;-64
2023/03/02 09:49:00;;;;;;;;;;;;;;;2.15;74.05;102079.78;4196663;28;20020;-64
2023/03/02 09:51:05;;;;;;;;;;;;;;;2.19;74.17;102083.09;4195460;28;20368;-64
2023/03/02 09:53:12;;;;;;;;;;;;;;;2.22;73.80;102074.94;4195958;28;20020;-64
2023/03/02 09:55:15;;;;;;;;;;;;;;;2.27;73.84;102082.66;4196087;28;20016;-63
2023/03/02 09:57:20;;;;;;;;;;;;;;;2.30;73.42;102083.34;4196810;28;20020;-63
2023/03/02 09:59:23;;;;;;;;;;;;;;;2.31;73.43;102082.38;4195141;28;20452;-63
2023/03/02 10:01:40;;;;;;;;;;;;;;;2.37;73.28;102082.97;4195292;28;20023;-63
2023/03/02 10:03:45;;;;;;;;;;;;;;;2.40;72.96;102088.13;4195390;28;20015;-63
2023/03/02 10:05:49;;;;;;;;;;;;;;;2.40;73.01;102091.66;4194251;28;20011;-63
2023/03/02 10:07:50;;;;;;;;;;;;;;;2.42;73.04;102092.44;4195876;28;20073;-63
2023/03/02 10:09:52;;;;;;;;;;;;;;;2.42;72.94;102097.75;4195956;28;20027;-63
2023/03/02 10:12:09;;;;;;;;;;;;;;;2.45;73.05;102094.91;4196361;28;20450;-63
2023/03/02 10:14:12;;;;;;;;;;;;;;;2.47;72.96;102095.66;4193044;28;20031;-63
2023/03/02 10:16:17;;;;;;;;;;;;;;;2.51;73.06;102097.22;4195402;28;20003;-63
2023/03/02 10:18:21;;;;;;;;;;;;;;;2.58;72.91;102091.50;4195506;28;20028;-63
2023/03/02 10:20:25;;;;;;;;;;;;;;;2.62;72.66;102091.25;4194366;28;20023;-63
2023/03/02 10:22:28;;;;;;;;;;;;;;;2.67;72.40;102085.63;4196406;28;20023;-63
2023/03/02 10:24:31;;;;;;;;;;;;;;;2.71;72.39;102087.16;4195749;28;20388;-63
2023/03/02 10:26:37;;;;;;;;;;;;;;;2.72;72.30;102088.88;4196239;28;20018;-63
2023/03/02 10:28:41;;;;;;;;;;;;;;;2.74;71.94;102089.63;4195833;28;20379;-63
2023/03/02 10:30:43;;;;;;;;;;;;;;;2.75;71.99;102095.84;4195190;28;20016;-62
2023/03/02 10:32:46;;;;;;;;;;;;;;;2.78;71.98;102076.97;4196147;28;20015;-63
2023/03/02 10:34:48;;;;;;;;;;;;;;;2.81;71.67;102088.31;4194693;28;20531;-63
2023/03/02 10:36:50;;;;;;;;;;;;;;;2.85;71.85;102075.63;4192801;28;20023;-61
2023/03/02 10:38:54;;;;;;;;;;;;;;;2.90;71.72;102078.91;4195361;28;20032;-63